Mendocino, CA

1:26 AM PDT on August 29, 2014 (GMT -0700)
Ukiah Municipal | Change Station
CLOSE
Current Station
Airport
Location: Ukiah,
Elevation: 614 ft
Nearby Weather Stations

Elev 614 ft 39.13 °N, 123.20 °W | Updated 30 minutes ago

Clear
Clear
65 °F
Feels Like 65 °F
N
0
Wind Variable Wind from North

Today
High -- | Low -- °F
--% Chance of Precip.
Yesterday
High -- | Low -- °F
Precip. -- in
6:40 AM 7:50 PM
Waxing Crescent, 13% visible
Pressure 29.91 in
Visibility 10.0 miles
Clouds Clear
Dew Point 51 °F
Humidity 61%
Rainfall 0.00 in
Snow Depth Not available.
UV 0 out of 12
Pollen 9.20 out of 12
Air Quality Not available.
Flu Activity Not available.
METAR KUKI 290756Z AUTO 00000KT 10SM CLR 18/11 A2994 RMK AO2 SLP129 T01830106 403780144

More Conditions Fewer Conditions

Pressure 29.91 in
Visibility 10.0 miles
Clouds Clear
Dew Point 51 °F
Humidity 61%
Rainfall 0.00 in
Snow Depth Not available.
UV 0 out of 12
Pollen 9.20 out of 12
Air Quality Not available.
Flu Activity Not available.
METAR KUKI 290756Z AUTO 00000KT 10SM CLR 18/11 A2994 RMK AO2 SLP129 T01830106 403780144

More Conditions Fewer Conditions

10-Day Weather Forecast

Almanac

Astronomy

Aug. 29, 2014 Rise Set
Actual Time 6:40 AM PDT 7:50 PM PDT
Civil Twilight 6:13 AM PDT 8:17 PM PDT
Nautical Twilight 5:40 AM PDT 8:50 PM PDT
Astronomical Twilight 5:05 AM PDT 9:25 PM PDT
Moon 10:34 AM PDT 9:53 PM PDT
Length of Visible Light 14h 04m
Length of Day
13h 09m
Tomorrow will be 2m 27s shorter.
Waxing Crescent, 13% of the Moon is Illuminated
Today
Waxing Crescent
Sep 2
First Quarter
Sep 8
Full
Sep 15
Last Quarter
Sep 24
New

Today's Extremes

State Highs State Lows

Community

WunderPhotos

Upload Photos

1,748,197 photos uploaded!

Nearby

Snow Depth

Station Depth Elevation
CSS Lab 1 in 6900 ft
Rubicon #2 0 in 7500 ft
Echo Peak 0 in 7800 ft
Fallen Leaf 0 in 6300 ft
Adin Mountain 0 in 6200 ft

Earthquake Activity

City Distance Mag. Time & Date
Napa, California 107 miles 2.6 11:57 AM PDT
2014-08-27
The Geysers, California 62 miles 2.6 7:42 AM PDT
2014-08-27
Napa, California 107 miles 2.5 10:56 AM PDT
2014-08-26
Napa, California 107 miles 3.0 6:45 AM PDT
2014-08-26
Minimum magnitude displayed is 2.5.

Coastal Water Temperatures

Place Temperature
Arena Cove, CA 60.1 °F
North Spit, CA 60.1 °F
Point Reyes, CA 64.0 °F
San Francisco, CA 66.0 °F
Richmond, CA 66.9 °F

Nearby Weather Stations